Current Conditions

Updated: 20-May-2018 4:31 PM  
Summary / Temperature Wind Rain






Feels like: 79°F

1-hour difference
0.2°F 0.2°F warmer than last hour.

24-hour difference
6.3°F6.3°F colder than yesterday at this time.

  Today Yesterday
High: 80.8°F
4:04 PM
87.4°F
3:31 PM
Low: 55.1°F
5:21 AM
60.4°F
5:10 AM
Wind from NW NW
2.8
Gust:  2.0 mph
1 Beaufort - Light Air

Today: 10.4 - 10:18 AM
Month: 15.0 mph - May 12
Rain Today: 0.00 in
Current Rate (/hr): 0.000 in
Max Rate (/hr):
Rain Yesterday: 0.00 in
Storm Rain: 0.00 in
This Month: 0.00 in
Season Total: 6.40 in
Last Rain Event: 33 days ago
Humidity / Barometer Sun / Moon
Humidity: 32 Decreased 5.0% in the last hour.
Dew Point: 47.5°F Decreased 3.7°F in the last hour.
Barometer: 29.789 inHg  
Baro Trend: Falling slowly
Sunrise: 5:46 AM
Sunset: 7:59 PM
Moonrise: 11:07 AM
Moonset: 12:29 AM
Sky Conditions UV Index
Summary: Clear
Visibility: 10 miles
Clouds: None
KVIS - 3:56 PM PDT
Current: 7.0  High 
Sunday: 7.8  High 
Monday: 7.6  High 
Air Quality Fire Danger
 Good 
Ozone 54 ppb
PM 2.5 8 μg/m3
4:30 PM PDT
Current: 52  Moderate 

Local Alerts Local Forecast
Local NWS Alerts
Today

Mostly
Sunny
High 83
Tonight

Partly
Cloudy
Low 56
Mon

Rain
Showers
High 77
Mon night

Rain
Showers
Low 59
Tue

Partly
Cloudy
High 85
Tue night

Partly
Cloudy
Low 57
Wed

Partly
Cloudy
High 88

Local Radar Local Satellite Neighborhood Cam Sky Cam
Local Radar Local Satellite Neighborhood Cam Sky Cam


Nearby Personal Stations

Weather Underground PWS KCAEXETE7     Weather Underground PWS KCAEXETE6     Weather Underground PWS KCAEXETE11

Nearby Airport Stations

KVIS - Visalia, California, USA
Distance from station: W 14mi, 23km
Updated: Sun, 20-May-2018 3:56pm PDT
Clear
Clear
 Wind from WNW
Wind: WNW 6 mph , 9 km/h
Temperature: 79°F , 26°C
Dew Point: 46°F , 8°C
Humidity: 32%
Barometer: 29.83 inHg , 1010.2 hPa
Clouds: Clear
Visibility: 10 miles , 16 km
2018/05/20 22:56 KVIS 202256Z AUTO 30005KT 10SM CLR 26/08 A2983 RMK AO2 SLP108 T02610083
KPTV - Porterville, California, USA
Distance from station: SSE 19mi, 31km
Updated: Sun, 20-May-2018 3:56pm PDT
Clear
Clear
 Wind from WNW
Wind: WNW 12 mph , 19 km/h
Temperature: 81°F , 27°C
Dew Point: 46°F , 8°C
Humidity: 30%
Barometer: 29.84 inHg , 1010.5 hPa
Clouds: Clear
Visibility: 10 miles , 16 km
2018/05/20 22:56 KPTV 202256Z AUTO 30010KT 10SM CLR 27/08 A2984 RMK AO2 SLP112 T02670083

Metar display script from Saratoga-Weather.org



Visitor Map